sensor_id;sensor_type;location;lat;lon;timestamp;P1;durP1;ratioP1;P2;durP2;ratioP2
75059;SDS011;63640;59.264;18.116;2023-02-18T00:00:59;21.83;;;7.65;;
75059;SDS011;63640;59.264;18.116;2023-02-18T00:03:26;18.65;;;6.85;;
75059;SDS011;63640;59.264;18.116;2023-02-18T00:05:52;13.75;;;5.72;;
75059;SDS011;63640;59.264;18.116;2023-02-18T00:08:18;11.80;;;5.05;;
75059;SDS011;63640;59.264;18.116;2023-02-18T00:10:44;14.07;;;5.70;;
75059;SDS011;63640;59.264;18.116;2023-02-18T00:13:10;17.38;;;6.90;;
75059;SDS011;63640;59.264;18.116;2023-02-18T00:15:36;13.20;;;5.40;;
75059;SDS011;63640;59.264;18.116;2023-02-18T00:18:02;10.85;;;4.40;;
75059;SDS011;63640;59.264;18.116;2023-02-18T00:20:28;12.30;;;4.88;;
75059;SDS011;63640;59.264;18.116;2023-02-18T00:22:54;9.32;;;4.18;;
75059;SDS011;63640;59.264;18.116;2023-02-18T00:25:19;11.40;;;4.57;;
75059;SDS011;63640;59.264;18.116;2023-02-18T00:27:45;13.13;;;5.30;;
75059;SDS011;63640;59.264;18.116;2023-02-18T00:30:10;7.63;;;3.55;;
75059;SDS011;63640;59.264;18.116;2023-02-18T00:32:36;8.38;;;3.85;;
75059;SDS011;63640;59.264;18.116;2023-02-18T00:35:02;9.80;;;3.85;;
75059;SDS011;63640;59.264;18.116;2023-02-18T00:37:28;8.48;;;3.58;;
75059;SDS011;63640;59.264;18.116;2023-02-18T00:39:54;6.85;;;3.00;;
75059;SDS011;63640;59.264;18.116;2023-02-18T00:42:19;6.90;;;3.25;;
75059;SDS011;63640;59.264;18.116;2023-02-18T00:44:45;8.65;;;2.70;;
75059;SDS011;63640;59.264;18.116;2023-02-18T00:47:10;8.82;;;3.08;;
75059;SDS011;63640;59.264;18.116;2023-02-18T00:49:36;7.20;;;3.17;;
75059;SDS011;63640;59.264;18.116;2023-02-18T00:52:01;7.63;;;4.00;;
75059;SDS011;63640;59.264;18.116;2023-02-18T00:54:27;8.60;;;3.78;;
75059;SDS011;63640;59.264;18.116;2023-02-18T00:56:53;6.95;;;3.08;;
75059;SDS011;63640;59.264;18.116;2023-02-18T00:59:18;7.97;;;3.53;;
75059;SDS011;63640;59.264;18.116;2023-02-18T01:01:44;8.40;;;4.57;;
75059;SDS011;63640;59.264;18.116;2023-02-18T01:04:09;8.45;;;4.03;;
75059;SDS011;63640;59.264;18.116;2023-02-18T01:06:35;7.78;;;3.88;;
75059;SDS011;63640;59.264;18.116;2023-02-18T01:09:00;7.70;;;3.72;;
75059;SDS011;63640;59.264;18.116;2023-02-18T01:11:26;10.32;;;4.60;;
75059;SDS011;63640;59.264;18.116;2023-02-18T01:13:52;9.82;;;4.03;;
75059;SDS011;63640;59.264;18.116;2023-02-18T01:16:18;9.63;;;4.13;;
75059;SDS011;63640;59.264;18.116;2023-02-18T01:18:43;11.40;;;5.38;;
75059;SDS011;63640;59.264;18.116;2023-02-18T01:21:09;10.82;;;4.35;;
75059;SDS011;63640;59.264;18.116;2023-02-18T01:23:37;13.07;;;5.60;;
75059;SDS011;63640;59.264;18.116;2023-02-18T01:26:04;10.88;;;5.30;;
75059;SDS011;63640;59.264;18.116;2023-02-18T01:28:30;9.38;;;4.47;;
75059;SDS011;63640;59.264;18.116;2023-02-18T01:30:55;10.32;;;5.28;;
75059;SDS011;63640;59.264;18.116;2023-02-18T01:33:21;10.46;;;5.04;;
75059;SDS011;63640;59.264;18.116;2023-02-18T01:35:47;10.57;;;5.32;;
75059;SDS011;63640;59.264;18.116;2023-02-18T01:38:12;9.68;;;4.43;;
75059;SDS011;63640;59.264;18.116;2023-02-18T01:40:48;10.18;;;4.65;;
75059;SDS011;63640;59.264;18.116;2023-02-18T01:43:16;10.88;;;4.70;;
75059;SDS011;63640;59.264;18.116;2023-02-18T01:48:17;9.57;;;4.40;;
75059;SDS011;63640;59.264;18.116;2023-02-18T01:51:04;10.65;;;4.78;;
75059;SDS011;63640;59.264;18.116;2023-02-18T01:56:39;4.93;;;2.08;;
75059;SDS011;63640;59.264;18.116;2023-02-18T01:59:10;3.60;;;1.35;;
75059;SDS011;63640;59.264;18.116;2023-02-18T02:01:38;3.60;;;1.13;;
75059;SDS011;63640;59.264;18.116;2023-02-18T02:04:04;4.30;;;1.10;;
75059;SDS011;63640;59.264;18.116;2023-02-18T02:06:29;2.90;;;1.08;;
75059;SDS011;63640;59.264;18.116;2023-02-18T02:08:56;2.67;;;1.10;;
75059;SDS011;63640;59.264;18.116;2023-02-18T02:16:25;6.10;;;2.38;;
75059;SDS011;63640;59.264;18.116;2023-02-18T02:27:18;5.10;;;2.13;;
75059;SDS011;63640;59.264;18.116;2023-02-18T02:38:42;4.03;;;1.50;;
75059;SDS011;63640;59.264;18.116;2023-02-18T02:46:14;4.10;;;1.70;;
75059;SDS011;63640;59.264;18.116;2023-02-18T02:48:51;3.67;;;1.23;;
75059;SDS011;63640;59.264;18.116;2023-02-18T02:51:23;4.05;;;1.77;;
75059;SDS011;63640;59.264;18.116;2023-02-18T02:53:52;3.85;;;1.40;;
75059;SDS011;63640;59.264;18.116;2023-02-18T02:56:19;3.90;;;1.60;;
75059;SDS011;63640;59.264;18.116;2023-02-18T02:58:48;4.65;;;1.90;;
75059;SDS011;63640;59.264;18.116;2023-02-18T03:04:10;4.53;;;1.88;;
75059;SDS011;63640;59.264;18.116;2023-02-18T03:09:42;4.55;;;1.90;;
75059;SDS011;63640;59.264;18.116;2023-02-18T03:15:17;3.90;;;1.75;;
75059;SDS011;63640;59.264;18.116;2023-02-18T03:17:53;3.90;;;1.50;;
75059;SDS011;63640;59.264;18.116;2023-02-18T03:20:23;3.55;;;1.38;;
75059;SDS011;63640;59.264;18.116;2023-02-18T03:22:50;4.10;;;1.67;;
75059;SDS011;63640;59.264;18.116;2023-02-18T03:25:17;2.80;;;0.98;;
75059;SDS011;63640;59.264;18.116;2023-02-18T03:35:45;1.98;;;0.88;;
75059;SDS011;63640;59.264;18.116;2023-02-18T03:38:12;2.42;;;1.10;;
75059;SDS011;63640;59.264;18.116;2023-02-18T03:40:42;2.42;;;0.90;;
75059;SDS011;63640;59.264;18.116;2023-02-18T03:43:07;1.98;;;0.80;;
75059;SDS011;63640;59.264;18.116;2023-02-18T03:45:33;2.53;;;1.00;;
75059;SDS011;63640;59.264;18.116;2023-02-18T03:47:58;2.15;;;0.80;;
75059;SDS011;63640;59.264;18.116;2023-02-18T03:50:24;2.95;;;1.00;;
75059;SDS011;63640;59.264;18.116;2023-02-18T03:52:49;2.40;;;0.90;;
75059;SDS011;63640;59.264;18.116;2023-02-18T03:55:15;2.13;;;0.70;;
75059;SDS011;63640;59.264;18.116;2023-02-18T03:57:41;1.98;;;0.70;;
75059;SDS011;63640;59.264;18.116;2023-02-18T04:00:07;1.17;;;0.70;;
75059;SDS011;63640;59.264;18.116;2023-02-18T04:02:34;1.92;;;0.80;;
75059;SDS011;63640;59.264;18.116;2023-02-18T04:05:00;1.10;;;0.60;;
75059;SDS011;63640;59.264;18.116;2023-02-18T04:07:25;1.67;;;0.80;;
75059;SDS011;63640;59.264;18.116;2023-02-18T04:09:51;1.67;;;0.70;;
75059;SDS011;63640;59.264;18.116;2023-02-18T04:12:16;1.15;;;0.52;;
75059;SDS011;63640;59.264;18.116;2023-02-18T04:14:42;1.55;;;0.75;;
75059;SDS011;63640;59.264;18.116;2023-02-18T04:17:07;1.20;;;0.50;;
75059;SDS011;63640;59.264;18.116;2023-02-18T04:19:34;2.40;;;0.85;;
75059;SDS011;63640;59.264;18.116;2023-02-18T04:21:59;2.72;;;0.77;;
75059;SDS011;63640;59.264;18.116;2023-02-18T04:24:25;1.35;;;0.60;;
75059;SDS011;63640;59.264;18.116;2023-02-18T04:26:51;1.55;;;0.60;;
75059;SDS011;63640;59.264;18.116;2023-02-18T04:29:16;0.88;;;0.40;;
75059;SDS011;63640;59.264;18.116;2023-02-18T04:31:42;2.28;;;0.75;;
75059;SDS011;63640;59.264;18.116;2023-02-18T04:34:07;2.08;;;0.70;;
75059;SDS011;63640;59.264;18.116;2023-02-18T04:36:33;1.63;;;0.60;;
75059;SDS011;63640;59.264;18.116;2023-02-18T04:38:58;1.00;;;0.60;;
75059;SDS011;63640;59.264;18.116;2023-02-18T04:41:24;1.85;;;0.82;;
75059;SDS011;63640;59.264;18.116;2023-02-18T04:43:50;1.80;;;0.65;;
75059;SDS011;63640;59.264;18.116;2023-02-18T04:46:15;1.60;;;0.75;;
75059;SDS011;63640;59.264;18.116;2023-02-18T04:48:41;1.45;;;0.65;;
75059;SDS011;63640;59.264;18.116;2023-02-18T04:51:06;2.95;;;0.90;;
75059;SDS011;63640;59.264;18.116;2023-02-18T04:53:32;2.05;;;0.80;;
75059;SDS011;63640;59.264;18.116;2023-02-18T04:55:58;1.67;;;0.60;;
75059;SDS011;63640;59.264;18.116;2023-02-18T04:58:23;1.83;;;0.90;;
75059;SDS011;63640;59.264;18.116;2023-02-18T05:00:49;3.38;;;0.70;;
75059;SDS011;63640;59.264;18.116;2023-02-18T05:03:14;2.05;;;0.70;;
75059;SDS011;63640;59.264;18.116;2023-02-18T05:05:40;1.17;;;0.60;;
75059;SDS011;63640;59.264;18.116;2023-02-18T05:08:06;1.25;;;0.55;;
75059;SDS011;63640;59.264;18.116;2023-02-18T05:10:32;1.15;;;0.60;;
75059;SDS011;63640;59.264;18.116;2023-02-18T05:12:58;1.48;;;0.50;;
75059;SDS011;63640;59.264;18.116;2023-02-18T05:15:24;2.08;;;0.80;;
75059;SDS011;63640;59.264;18.116;2023-02-18T05:17:50;1.13;;;0.60;;
75059;SDS011;63640;59.264;18.116;2023-02-18T05:20:15;1.77;;;0.80;;
75059;SDS011;63640;59.264;18.116;2023-02-18T05:22:41;2.25;;;0.50;;
75059;SDS011;63640;59.264;18.116;2023-02-18T05:25:07;1.08;;;0.60;;
75059;SDS011;63640;59.264;18.116;2023-02-18T05:27:32;2.08;;;0.60;;
75059;SDS011;63640;59.264;18.116;2023-02-18T05:29:58;1.58;;;0.73;;
75059;SDS011;63640;59.264;18.116;2023-02-18T05:32:23;1.60;;;0.70;;
75059;SDS011;63640;59.264;18.116;2023-02-18T05:34:49;1.10;;;0.50;;
75059;SDS011;63640;59.264;18.116;2023-02-18T05:37:14;1.85;;;0.70;;
75059;SDS011;63640;59.264;18.116;2023-02-18T05:39:42;1.52;;;0.70;;
75059;SDS011;63640;59.264;18.116;2023-02-18T05:42:08;2.03;;;0.73;;
75059;SDS011;63640;59.264;18.116;2023-02-18T05:44:33;1.95;;;0.80;;
75059;SDS011;63640;59.264;18.116;2023-02-18T05:47:00;1.85;;;0.80;;
75059;SDS011;63640;59.264;18.116;2023-02-18T05:49:27;1.15;;;0.50;;
75059;SDS011;63640;59.264;18.116;2023-02-18T05:51:53;1.83;;;0.70;;
75059;SDS011;63640;59.264;18.116;2023-02-18T05:54:19;1.77;;;0.70;;
75059;SDS011;63640;59.264;18.116;2023-02-18T05:56:45;1.45;;;0.70;;
75059;SDS011;63640;59.264;18.116;2023-02-18T05:59:10;1.92;;;0.68;;
75059;SDS011;63640;59.264;18.116;2023-02-18T06:01:36;1.73;;;0.63;;
75059;SDS011;63640;59.264;18.116;2023-02-18T06:04:01;3.40;;;0.70;;
75059;SDS011;63640;59.264;18.116;2023-02-18T06:06:27;1.90;;;0.63;;
75059;SDS011;63640;59.264;18.116;2023-02-18T06:08:52;1.35;;;0.60;;
75059;SDS011;63640;59.264;18.116;2023-02-18T06:11:18;1.70;;;0.77;;
75059;SDS011;63640;59.264;18.116;2023-02-18T06:13:44;1.38;;;0.60;;
75059;SDS011;63640;59.264;18.116;2023-02-18T06:16:09;1.98;;;0.70;;
75059;SDS011;63640;59.264;18.116;2023-02-18T06:18:35;1.80;;;0.80;;
75059;SDS011;63640;59.264;18.116;2023-02-18T06:21:00;0.52;;;0.47;;
75059;SDS011;63640;59.264;18.116;2023-02-18T06:23:26;1.27;;;0.60;;
75059;SDS011;63640;59.264;18.116;2023-02-18T06:25:51;0.70;;;0.40;;
75059;SDS011;63640;59.264;18.116;2023-02-18T06:28:17;1.60;;;0.57;;
75059;SDS011;63640;59.264;18.116;2023-02-18T06:30:44;1.05;;;0.52;;
75059;SDS011;63640;59.264;18.116;2023-02-18T06:33:10;1.65;;;0.63;;
75059;SDS011;63640;59.264;18.116;2023-02-18T06:35:35;1.45;;;0.75;;
75059;SDS011;63640;59.264;18.116;2023-02-18T06:38:01;0.93;;;0.40;;
75059;SDS011;63640;59.264;18.116;2023-02-18T06:40:26;0.85;;;0.43;;
75059;SDS011;63640;59.264;18.116;2023-02-18T06:42:52;0.82;;;0.40;;
75059;SDS011;63640;59.264;18.116;2023-02-18T06:45:17;0.95;;;0.40;;
75059;SDS011;63640;59.264;18.116;2023-02-18T06:47:43;0.40;;;0.40;;
75059;SDS011;63640;59.264;18.116;2023-02-18T06:50:09;1.50;;;0.60;;
75059;SDS011;63640;59.264;18.116;2023-02-18T06:52:34;1.25;;;0.50;;
75059;SDS011;63640;59.264;18.116;2023-02-18T06:55:03;0.75;;;0.47;;
75059;SDS011;63640;59.264;18.116;2023-02-18T06:57:29;1.23;;;0.57;;
75059;SDS011;63640;59.264;18.116;2023-02-18T06:59:55;0.50;;;0.50;;
75059;SDS011;63640;59.264;18.116;2023-02-18T07:02:20;0.43;;;0.40;;
75059;SDS011;63640;59.264;18.116;2023-02-18T07:04:46;0.70;;;0.40;;
75059;SDS011;63640;59.264;18.116;2023-02-18T07:07:11;0.52;;;0.30;;
75059;SDS011;63640;59.264;18.116;2023-02-18T07:09:37;0.60;;;0.40;;
75059;SDS011;63640;59.264;18.116;2023-02-18T07:12:02;1.13;;;0.50;;
75059;SDS011;63640;59.264;18.116;2023-02-18T07:14:28;0.60;;;0.60;;
75059;SDS011;63640;59.264;18.116;2023-02-18T07:16:54;1.38;;;0.50;;
75059;SDS011;63640;59.264;18.116;2023-02-18T07:19:19;0.50;;;0.50;;
75059;SDS011;63640;59.264;18.116;2023-02-18T07:21:45;0.75;;;0.40;;
75059;SDS011;63640;59.264;18.116;2023-02-18T07:24:10;1.00;;;0.40;;
75059;SDS011;63640;59.264;18.116;2023-02-18T07:26:36;2.90;;;1.08;;
75059;SDS011;63640;59.264;18.116;2023-02-18T07:29:01;0.45;;;0.30;;
75059;SDS011;63640;59.264;18.116;2023-02-18T07:31:27;0.85;;;0.50;;
75059;SDS011;63640;59.264;18.116;2023-02-18T07:33:52;1.33;;;0.93;;
75059;SDS011;63640;59.264;18.116;2023-02-18T07:36:18;1.27;;;0.60;;
75059;SDS011;63640;59.264;18.116;2023-02-18T07:38:44;0.45;;;0.32;;
75059;SDS011;63640;59.264;18.116;2023-02-18T07:41:27;0.40;;;0.40;;
75059;SDS011;63640;59.264;18.116;2023-02-18T07:46:18;1.23;;;0.52;;
75059;SDS011;63640;59.264;18.116;2023-02-18T07:48:44;0.73;;;0.40;;
75059;SDS011;63640;59.264;18.116;2023-02-18T07:51:09;0.63;;;0.40;;
75059;SDS011;63640;59.264;18.116;2023-02-18T07:53:36;1.95;;;0.68;;
75059;SDS011;63640;59.264;18.116;2023-02-18T07:56:02;1.20;;;0.50;;
75059;SDS011;63640;59.264;18.116;2023-02-18T07:58:29;0.50;;;0.40;;
75059;SDS011;63640;59.264;18.116;2023-02-18T08:00:55;0.45;;;0.45;;
75059;SDS011;63640;59.264;18.116;2023-02-18T08:03:22;1.98;;;0.90;;
75059;SDS011;63640;59.264;18.116;2023-02-18T08:05:49;0.80;;;0.40;;
75059;SDS011;63640;59.264;18.116;2023-02-18T08:08:17;0.55;;;0.40;;
75059;SDS011;63640;59.264;18.116;2023-02-18T08:10:44;0.90;;;0.40;;
75059;SDS011;63640;59.264;18.116;2023-02-18T08:13:10;1.75;;;0.60;;
75059;SDS011;63640;59.264;18.116;2023-02-18T08:15:36;2.22;;;0.55;;
75059;SDS011;63640;59.264;18.116;2023-02-18T08:18:02;1.05;;;0.50;;
75059;SDS011;63640;59.264;18.116;2023-02-18T08:20:28;1.02;;;0.50;;
75059;SDS011;63640;59.264;18.116;2023-02-18T08:22:54;1.70;;;0.60;;
75059;SDS011;63640;59.264;18.116;2023-02-18T08:25:19;1.70;;;0.70;;
75059;SDS011;63640;59.264;18.116;2023-02-18T08:27:45;1.90;;;0.70;;
75059;SDS011;63640;59.264;18.116;2023-02-18T08:30:11;1.65;;;0.77;;
75059;SDS011;63640;59.264;18.116;2023-02-18T08:32:37;1.88;;;0.60;;
75059;SDS011;63640;59.264;18.116;2023-02-18T08:35:05;1.83;;;0.80;;
75059;SDS011;63640;59.264;18.116;2023-02-18T08:37:32;1.65;;;0.52;;
75059;SDS011;63640;59.264;18.116;2023-02-18T08:39:57;1.65;;;0.70;;
75059;SDS011;63640;59.264;18.116;2023-02-18T08:42:23;1.77;;;0.60;;
75059;SDS011;63640;59.264;18.116;2023-02-18T08:44:50;3.75;;;0.60;;
75059;SDS011;63640;59.264;18.116;2023-02-18T08:47:16;0.95;;;0.43;;
75059;SDS011;63640;59.264;18.116;2023-02-18T08:49:41;1.20;;;0.45;;
75059;SDS011;63640;59.264;18.116;2023-02-18T08:52:07;2.10;;;0.90;;
75059;SDS011;63640;59.264;18.116;2023-02-18T08:54:33;1.67;;;0.70;;
75059;SDS011;63640;59.264;18.116;2023-02-18T08:56:58;1.35;;;0.55;;
75059;SDS011;63640;59.264;18.116;2023-02-18T08:59:24;1.58;;;0.40;;
75059;SDS011;63640;59.264;18.116;2023-02-18T09:01:50;1.20;;;0.60;;
75059;SDS011;63640;59.264;18.116;2023-02-18T09:04:15;1.55;;;0.70;;
75059;SDS011;63640;59.264;18.116;2023-02-18T09:06:41;3.25;;;0.80;;
75059;SDS011;63640;59.264;18.116;2023-02-18T09:09:07;3.10;;;0.85;;
75059;SDS011;63640;59.264;18.116;2023-02-18T09:11:33;1.40;;;0.60;;
75059;SDS011;63640;59.264;18.116;2023-02-18T09:13:58;2.13;;;0.70;;
75059;SDS011;63640;59.264;18.116;2023-02-18T09:16:24;1.92;;;0.70;;
75059;SDS011;63640;59.264;18.116;2023-02-18T09:18:50;1.23;;;0.55;;
75059;SDS011;63640;59.264;18.116;2023-02-18T09:21:16;1.35;;;0.47;;
75059;SDS011;63640;59.264;18.116;2023-02-18T09:23:45;1.13;;;0.60;;
75059;SDS011;63640;59.264;18.116;2023-02-18T09:26:12;1.30;;;0.60;;
75059;SDS011;63640;59.264;18.116;2023-02-18T09:28:38;1.13;;;0.60;;
75059;SDS011;63640;59.264;18.116;2023-02-18T09:31:08;2.25;;;0.68;;
75059;SDS011;63640;59.264;18.116;2023-02-18T09:36:02;1.38;;;0.60;;
75059;SDS011;63640;59.264;18.116;2023-02-18T09:38:28;1.95;;;0.70;;
75059;SDS011;63640;59.264;18.116;2023-02-18T09:40:53;1.70;;;0.60;;
75059;SDS011;63640;59.264;18.116;2023-02-18T09:43:26;1.80;;;0.60;;
75059;SDS011;63640;59.264;18.116;2023-02-18T09:45:55;1.00;;;0.40;;
75059;SDS011;63640;59.264;18.116;2023-02-18T09:48:30;1.88;;;0.60;;
75059;SDS011;63640;59.264;18.116;2023-02-18T09:50:56;1.25;;;0.40;;
75059;SDS011;63640;59.264;18.116;2023-02-18T09:53:22;0.85;;;0.50;;
75059;SDS011;63640;59.264;18.116;2023-02-18T09:55:49;2.35;;;0.60;;
75059;SDS011;63640;59.264;18.116;2023-02-18T09:58:22;2.08;;;0.88;;
75059;SDS011;63640;59.264;18.116;2023-02-18T10:00:51;1.05;;;0.50;;
75059;SDS011;63640;59.264;18.116;2023-02-18T10:03:21;1.42;;;0.50;;
75059;SDS011;63640;59.264;18.116;2023-02-18T10:05:59;1.73;;;0.60;;
75059;SDS011;63640;59.264;18.116;2023-02-18T10:10:59;1.88;;;0.50;;
75059;SDS011;63640;59.264;18.116;2023-02-18T10:13:26;1.23;;;0.60;;
75059;SDS011;63640;59.264;18.116;2023-02-18T10:15:55;2.30;;;0.60;;
75059;SDS011;63640;59.264;18.116;2023-02-18T10:18:28;3.28;;;0.60;;
75059;SDS011;63640;59.264;18.116;2023-02-18T10:21:05;1.13;;;0.40;;
75059;SDS011;63640;59.264;18.116;2023-02-18T10:23:34;3.35;;;0.55;;
75059;SDS011;63640;59.264;18.116;2023-02-18T10:26:02;1.85;;;0.60;;
75059;SDS011;63640;59.264;18.116;2023-02-18T10:28:31;1.45;;;0.45;;
75059;SDS011;63640;59.264;18.116;2023-02-18T10:30:58;3.42;;;0.88;;
75059;SDS011;63640;59.264;18.116;2023-02-18T10:33:31;1.48;;;0.80;;
75059;SDS011;63640;59.264;18.116;2023-02-18T10:38:36;4.00;;;0.73;;
75059;SDS011;63640;59.264;18.116;2023-02-18T10:41:11;1.55;;;0.52;;
75059;SDS011;63640;59.264;18.116;2023-02-18T10:49:14;2.53;;;0.63;;
75059;SDS011;63640;59.264;18.116;2023-02-18T10:51:57;0.95;;;0.47;;
75059;SDS011;63640;59.264;18.116;2023-02-18T10:54:25;2.50;;;0.77;;
75059;SDS011;63640;59.264;18.116;2023-02-18T10:56:51;2.25;;;0.60;;
75059;SDS011;63640;59.264;18.116;2023-02-18T10:59:22;2.42;;;0.75;;
75059;SDS011;63640;59.264;18.116;2023-02-18T11:01:56;3.38;;;0.68;;
75059;SDS011;63640;59.264;18.116;2023-02-18T11:04:27;2.60;;;0.70;;
75059;SDS011;63640;59.264;18.116;2023-02-18T11:07:03;5.13;;;0.63;;
75059;SDS011;63640;59.264;18.116;2023-02-18T11:12:23;4.88;;;1.45;;
75059;SDS011;63640;59.264;18.116;2023-02-18T11:17:30;1.05;;;0.43;;
75059;SDS011;63640;59.264;18.116;2023-02-18T11:20:01;1.88;;;0.70;;
75059;SDS011;63640;59.264;18.116;2023-02-18T11:22:33;3.15;;;0.60;;
75059;SDS011;63640;59.264;18.116;2023-02-18T11:25:17;4.82;;;0.60;;
75059;SDS011;63640;59.264;18.116;2023-02-18T11:27:47;2.88;;;0.70;;
75059;SDS011;63640;59.264;18.116;2023-02-18T11:32:42;2.15;;;0.50;;
75059;SDS011;63640;59.264;18.116;2023-02-18T11:35:15;3.03;;;0.60;;
75059;SDS011;63640;59.264;18.116;2023-02-18T11:37:42;2.53;;;0.60;;
75059;SDS011;63640;59.264;18.116;2023-02-18T11:40:18;2.40;;;0.60;;
75059;SDS011;63640;59.264;18.116;2023-02-18T11:42:46;2.90;;;0.63;;
75059;SDS011;63640;59.264;18.116;2023-02-18T11:45:24;1.70;;;0.50;;
75059;SDS011;63640;59.264;18.116;2023-02-18T11:47:57;2.88;;;0.65;;
75059;SDS011;63640;59.264;18.116;2023-02-18T11:50:24;2.13;;;0.60;;
75059;SDS011;63640;59.264;18.116;2023-02-18T11:52:50;1.75;;;0.50;;
75059;SDS011;63640;59.264;18.116;2023-02-18T11:55:22;2.22;;;0.75;;
75059;SDS011;63640;59.264;18.116;2023-02-18T11:57:55;1.75;;;0.43;;
75059;SDS011;63640;59.264;18.116;2023-02-18T12:00:45;1.45;;;0.47;;
75059;SDS011;63640;59.264;18.116;2023-02-18T12:05:39;3.40;;;0.50;;
75059;SDS011;63640;59.264;18.116;2023-02-18T12:08:10;2.75;;;0.55;;
75059;SDS011;63640;59.264;18.116;2023-02-18T12:10:39;1.40;;;0.70;;
75059;SDS011;63640;59.264;18.116;2023-02-18T12:18:33;3.08;;;0.70;;
75059;SDS011;63640;59.264;18.116;2023-02-18T12:21:34;2.28;;;0.65;;
75059;SDS011;63640;59.264;18.116;2023-02-18T12:24:24;3.75;;;0.52;;
75059;SDS011;63640;59.264;18.116;2023-02-18T12:27:09;1.95;;;0.60;;
75059;SDS011;63640;59.264;18.116;2023-02-18T12:32:31;1.48;;;0.50;;
75059;SDS011;63640;59.264;18.116;2023-02-18T12:45:38;3.83;;;0.57;;
75059;SDS011;63640;59.264;18.116;2023-02-18T13:11:35;3.97;;;0.70;;
75059;SDS011;63640;59.264;18.116;2023-02-18T13:14:40;4.10;;;0.50;;
75059;SDS011;63640;59.264;18.116;2023-02-18T13:17:21;3.15;;;0.70;;
75059;SDS011;63640;59.264;18.116;2023-02-18T13:19:54;6.45;;;0.70;;
75059;SDS011;63640;59.264;18.116;2023-02-18T13:22:23;3.00;;;0.50;;
75059;SDS011;63640;59.264;18.116;2023-02-18T13:24:50;3.22;;;0.63;;
75059;SDS011;63640;59.264;18.116;2023-02-18T13:32:59;1.77;;;0.57;;
75059;SDS011;63640;59.264;18.116;2023-02-18T13:41:00;4.53;;;0.68;;
75059;SDS011;63640;59.264;18.116;2023-02-18T13:48:40;50.75;;;3.67;;
75059;SDS011;63640;59.264;18.116;2023-02-18T13:51:09;2.28;;;1.00;;
75059;SDS011;63640;59.264;18.116;2023-02-18T13:53:36;1.02;;;0.32;;
75059;SDS011;63640;59.264;18.116;2023-02-18T13:56:03;0.95;;;0.43;;
75059;SDS011;63640;59.264;18.116;2023-02-18T13:58:36;2.90;;;0.70;;
75059;SDS011;63640;59.264;18.116;2023-02-18T14:08:42;1.92;;;0.60;;
75059;SDS011;63640;59.264;18.116;2023-02-18T14:13:46;2.40;;;0.43;;
75059;SDS011;63640;59.264;18.116;2023-02-18T14:16:14;1.90;;;0.40;;
75059;SDS011;63640;59.264;18.116;2023-02-18T14:26:15;3.55;;;0.50;;
75059;SDS011;63640;59.264;18.116;2023-02-18T14:34:24;2.15;;;0.40;;
75059;SDS011;63640;59.264;18.116;2023-02-18T14:39:31;2.60;;;0.85;;
75059;SDS011;63640;59.264;18.116;2023-02-18T14:42:09;2.15;;;0.57;;
75059;SDS011;63640;59.264;18.116;2023-02-18T14:50:16;0.98;;;0.30;;
75059;SDS011;63640;59.264;18.116;2023-02-18T14:52:47;3.20;;;0.40;;
75059;SDS011;63640;59.264;18.116;2023-02-18T14:55:17;1.42;;;0.50;;
75059;SDS011;63640;59.264;18.116;2023-02-18T14:57:45;1.70;;;0.32;;
75059;SDS011;63640;59.264;18.116;2023-02-18T15:00:15;2.85;;;0.55;;
75059;SDS011;63640;59.264;18.116;2023-02-18T15:02:49;2.10;;;0.60;;
75059;SDS011;63640;59.264;18.116;2023-02-18T15:05:22;1.48;;;0.52;;
75059;SDS011;63640;59.264;18.116;2023-02-18T15:07:56;4.03;;;1.17;;
75059;SDS011;63640;59.264;18.116;2023-02-18T15:10:38;4.90;;;0.60;;
75059;SDS011;63640;59.264;18.116;2023-02-18T15:13:08;12.80;;;1.00;;
75059;SDS011;63640;59.264;18.116;2023-02-18T15:15:52;2.42;;;0.50;;
75059;SDS011;63640;59.264;18.116;2023-02-18T15:18:26;2.97;;;0.50;;
75059;SDS011;63640;59.264;18.116;2023-02-18T15:20:54;2.78;;;0.50;;
75059;SDS011;63640;59.264;18.116;2023-02-18T15:23:20;4.28;;;0.90;;
75059;SDS011;63640;59.264;18.116;2023-02-18T15:25:51;3.85;;;0.63;;
75059;SDS011;63640;59.264;18.116;2023-02-18T15:28:25;4.57;;;0.60;;
75059;SDS011;63640;59.264;18.116;2023-02-18T15:30:52;5.53;;;0.43;;
75059;SDS011;63640;59.264;18.116;2023-02-18T15:33:20;1.65;;;0.50;;
75059;SDS011;63640;59.264;18.116;2023-02-18T15:35:45;3.90;;;0.70;;
75059;SDS011;63640;59.264;18.116;2023-02-18T15:38:13;7.70;;;0.82;;
75059;SDS011;63640;59.264;18.116;2023-02-18T15:40:40;2.90;;;0.50;;
75059;SDS011;63640;59.264;18.116;2023-02-18T15:43:06;1.35;;;0.45;;
75059;SDS011;63640;59.264;18.116;2023-02-18T15:45:33;1.63;;;0.60;;
75059;SDS011;63640;59.264;18.116;2023-02-18T15:48:00;8.45;;;0.88;;
75059;SDS011;63640;59.264;18.116;2023-02-18T15:50:28;1.52;;;0.50;;
75059;SDS011;63640;59.264;18.116;2023-02-18T15:53:08;5.05;;;0.63;;
75059;SDS011;63640;59.264;18.116;2023-02-18T15:55:37;5.15;;;0.65;;
75059;SDS011;63640;59.264;18.116;2023-02-18T15:58:05;3.30;;;0.93;;
75059;SDS011;63640;59.264;18.116;2023-02-18T16:00:40;5.88;;;0.82;;
75059;SDS011;63640;59.264;18.116;2023-02-18T16:03:14;1.88;;;0.43;;
75059;SDS011;63640;59.264;18.116;2023-02-18T16:05:41;1.75;;;0.60;;
75059;SDS011;63640;59.264;18.116;2023-02-18T16:08:14;2.53;;;0.80;;
75059;SDS011;63640;59.264;18.116;2023-02-18T16:10:45;2.05;;;0.65;;
75059;SDS011;63640;59.264;18.116;2023-02-18T16:13:13;4.05;;;0.85;;
75059;SDS011;63640;59.264;18.116;2023-02-18T16:15:41;2.83;;;0.70;;
75059;SDS011;63640;59.264;18.116;2023-02-18T16:26:08;2.45;;;0.38;;
75059;SDS011;63640;59.264;18.116;2023-02-18T16:28:52;5.85;;;0.70;;
75059;SDS011;63640;59.264;18.116;2023-02-18T16:31:18;3.92;;;0.75;;
75059;SDS011;63640;59.264;18.116;2023-02-18T16:33:46;5.32;;;0.80;;
75059;SDS011;63640;59.264;18.116;2023-02-18T16:36:14;4.57;;;0.73;;
75059;SDS011;63640;59.264;18.116;2023-02-18T16:38:41;2.90;;;0.93;;
75059;SDS011;63640;59.264;18.116;2023-02-18T16:41:08;3.47;;;0.70;;
75059;SDS011;63640;59.264;18.116;2023-02-18T16:43:35;4.70;;;0.90;;
75059;SDS011;63640;59.264;18.116;2023-02-18T16:46:08;2.72;;;0.70;;
75059;SDS011;63640;59.264;18.116;2023-02-18T16:48:39;4.75;;;0.82;;
75059;SDS011;63640;59.264;18.116;2023-02-18T16:51:08;4.40;;;0.75;;
75059;SDS011;63640;59.264;18.116;2023-02-18T16:53:36;3.30;;;0.70;;
75059;SDS011;63640;59.264;18.116;2023-02-18T16:56:01;2.45;;;0.70;;
75059;SDS011;63640;59.264;18.116;2023-02-18T16:58:27;3.30;;;0.95;;
75059;SDS011;63640;59.264;18.116;2023-02-18T17:00:53;2.13;;;0.65;;
75059;SDS011;63640;59.264;18.116;2023-02-18T17:03:19;5.53;;;0.65;;
75059;SDS011;63640;59.264;18.116;2023-02-18T17:05:45;2.53;;;0.70;;
75059;SDS011;63640;59.264;18.116;2023-02-18T17:08:15;5.15;;;0.77;;
75059;SDS011;63640;59.264;18.116;2023-02-18T17:10:47;2.50;;;0.75;;
75059;SDS011;63640;59.264;18.116;2023-02-18T17:13:15;5.28;;;1.00;;
75059;SDS011;63640;59.264;18.116;2023-02-18T17:15:42;6.40;;;0.98;;
75059;SDS011;63640;59.264;18.116;2023-02-18T17:18:08;4.93;;;1.40;;
75059;SDS011;63640;59.264;18.116;2023-02-18T17:20:34;11.80;;;1.33;;
75059;SDS011;63640;59.264;18.116;2023-02-18T17:22:59;6.80;;;1.27;;
75059;SDS011;63640;59.264;18.116;2023-02-18T17:28:01;3.28;;;0.88;;
75059;SDS011;63640;59.264;18.116;2023-02-18T17:30:26;5.35;;;1.10;;
75059;SDS011;63640;59.264;18.116;2023-02-18T17:32:54;3.45;;;1.05;;
75059;SDS011;63640;59.264;18.116;2023-02-18T17:35:20;9.60;;;1.10;;